Time;durP1;ratioP1;P1;durP2;ratioP2;P2;SDS_P1;SDS_P2;PMS_P1;PMS_P2;Temp;Humidity;BMP_temperature;BMP_pressure;BME280_temperature;BME280_humidity;BME280_pressure;Samples;Min_cycle;Max_cycle;Signal;HPM_P1;HPM_P2
2022/08/05 00:02:18;;;;;;;;;32.33;28.33;;;;;23.35;55.85;100889.77;110762;1257;20006;-54
2022/08/05 00:04:46;;;;;;;;;31.67;30.00;;;;;23.35;55.78;100888.29;110772;1257;18748;-55
2022/08/05 00:07:13;;;;;;;;;34.00;32.00;;;;;23.26;56.03;100887.74;110734;1257;18772;-57
2022/08/05 00:09:40;;;;;;;;;30.00;30.00;;;;;23.30;56.00;100887.02;110780;1258;18402;-56
2022/08/05 00:12:08;;;;;;;;;32.00;31.00;;;;;23.30;56.12;100884.19;110749;1258;18554;-55
2022/08/05 00:14:35;;;;;;;;;30.33;29.67;;;;;23.22;56.25;100889.20;110755;1257;19344;-52
2022/08/05 00:17:03;;;;;;;;;33.00;31.00;;;;;23.04;56.74;100888.59;110813;1258;18265;-56
2022/08/05 00:19:30;;;;;;;;;32.33;31.67;;;;;22.94;57.17;100888.80;110766;1258;21684;-53
2022/08/05 00:21:58;;;;;;;;;30.00;27.00;;;;;22.91;57.47;100888.27;110850;1257;18745;-57
2022/08/05 00:24:25;;;;;;;;;30.00;30.00;;;;;23.04;57.19;100887.40;110805;1257;18268;-53
2022/08/05 00:26:52;;;;;;;;;30.00;28.67;;;;;23.06;57.25;100890.68;110740;1257;19416;-54
2022/08/05 00:29:20;;;;;;;;;31.33;29.00;;;;;23.09;57.41;100890.94;110804;1257;20452;-56
2022/08/05 00:31:47;;;;;;;;;34.33;30.67;;;;;22.90;57.92;100890.32;110775;1257;18234;-55
2022/08/05 00:34:14;;;;;;;;;34.33;29.67;;;;;22.89;58.09;100887.35;110779;1257;18694;-54
2022/08/05 00:36:42;;;;;;;;;30.67;30.33;;;;;22.81;58.36;100882.15;110832;1258;19422;-54
2022/08/05 00:39:09;;;;;;;;;30.50;28.50;;;;;22.85;58.42;100890.73;110824;1257;18277;-55
2022/08/05 00:41:37;;;;;;;;;28.00;26.67;;;;;22.84;58.36;100894.11;110774;1257;18758;-55
2022/08/05 00:44:04;;;;;;;;;30.00;30.00;;;;;22.84;58.58;100891.98;110779;1257;18778;-55
2022/08/05 00:46:31;;;;;;;;;30.67;29.00;;;;;22.86;58.42;100892.55;110808;1257;18828;-53
2022/08/05 00:48:59;;;;;;;;;32.00;30.33;;;;;22.78;58.62;100894.30;110812;1258;18751;-56
2022/08/05 00:51:26;;;;;;;;;34.00;32.50;;;;;22.69;58.70;100897.44;110780;1257;18686;-52
2022/08/05 00:53:54;;;;;;;;;28.50;27.50;;;;;22.69;58.83;100890.17;110647;1257;18230;-57
2022/08/05 00:56:21;;;;;;;;;33.67;30.33;;;;;22.62;58.91;100888.98;110659;1257;18694;-59
2022/08/05 00:58:49;;;;;;;;;33.00;29.67;;;;;22.60;59.05;100888.17;110781;1257;18827;-56
2022/08/05 01:01:16;;;;;;;;;33.33;30.33;;;;;22.70;58.73;100892.99;110721;1258;18316;-53
2022/08/05 01:03:43;;;;;;;;;29.00;28.00;;;;;22.77;58.50;100894.29;110826;1258;18994;-53
2022/08/05 01:06:11;;;;;;;;;34.00;33.00;;;;;22.75;58.61;100892.70;110757;1257;21387;-54
2022/08/05 01:08:38;;;;;;;;;30.33;28.67;;;;;22.65;58.71;100889.11;110802;1258;18301;-56
2022/08/05 01:11:06;;;;;;;;;30.00;29.00;;;;;22.64;58.75;100888.36;110792;1257;18792;-54
2022/08/05 01:13:33;;;;;;;;;32.00;29.67;;;;;22.58;58.84;100885.80;110823;1257;18795;-55
2022/08/05 01:16:00;;;;;;;;;30.33;28.67;;;;;22.54;58.68;100886.70;110819;1258;19642;-55
2022/08/05 01:18:28;;;;;;;;;30.00;29.33;;;;;22.48;58.86;100883.27;110794;1257;18740;-54
2022/08/05 01:20:55;;;;;;;;;36.00;32.00;;;;;22.40;58.91;100878.36;110749;1256;18801;-53
2022/08/05 01:23:23;;;;;;;;;32.00;29.00;;;;;22.40;58.93;100876.76;110795;1256;18188;-53
2022/08/05 01:25:51;;;;;;;;;30.33;30.00;;;;;22.34;59.17;100877.04;110811;1258;18627;-55
2022/08/05 01:28:18;;;;;;;;;35.67;33.00;;;;;22.24;59.44;100878.30;110794;1258;18907;-57
2022/08/05 01:30:45;;;;;;;;;30.00;29.67;;;;;22.22;59.81;100877.83;110823;1257;18243;-51
2022/08/05 01:33:12;;;;;;;;;31.33;29.67;;;;;22.24;60.03;100877.10;110831;1257;18865;-55
2022/08/05 01:35:40;;;;;;;;;33.67;33.00;;;;;22.24;60.14;100875.63;110769;1257;19512;-53
2022/08/05 01:38:07;;;;;;;;;30.67;30.00;;;;;22.25;59.79;100875.99;110769;1257;18255;-52
2022/08/05 01:40:34;;;;;;;;;30.00;29.00;;;;;22.32;59.70;100869.30;110818;1258;18731;-54
2022/08/05 01:43:02;;;;;;;;;34.00;32.00;;;;;22.24;59.78;100865.35;110836;1258;18973;-55
2022/08/05 01:45:29;;;;;;;;;34.00;33.00;;;;;22.19;59.79;100868.58;110806;1258;21862;-54
2022/08/05 01:47:57;;;;;;;;;29.00;28.00;;;;;22.14;59.81;100868.75;110777;1257;20997;-56
2022/08/05 01:50:24;;;;;;;;;34.00;33.00;;;;;22.18;59.92;100866.53;110778;1257;18699;-56
2022/08/05 01:52:51;;;;;;;;;32.00;31.67;;;;;22.13;59.90;100866.37;110783;1258;21519;-54
2022/08/05 01:55:19;;;;;;;;;32.33;31.00;;;;;22.05;60.17;100865.42;110810;1258;20131;-52
2022/08/05 01:57:46;;;;;;;;;35.00;32.67;;;;;22.00;60.27;100862.14;110827;1257;18749;-54
2022/08/05 02:00:13;;;;;;;;;35.33;34.33;;;;;22.01;60.19;100859.50;110738;1257;18846;-55
2022/08/05 02:02:41;;;;;;;;;34.67;33.00;;;;;21.88;60.41;100855.46;110783;1257;18748;-55
2022/08/05 02:05:09;;;;;;;;;34.33;32.33;;;;;21.80;60.65;100854.39;110821;1257;21872;-54
2022/08/05 02:07:36;;;;;;;;;35.00;32.50;;;;;21.77;60.81;100855.30;110768;1257;18268;-52
2022/08/05 02:10:03;;;;;;;;;32.33;32.00;;;;;21.87;60.53;100851.97;110793;1257;21033;-54
2022/08/05 02:12:31;;;;;;;;;34.33;32.67;;;;;21.93;60.31;100852.29;110802;1258;18841;-54
2022/08/05 02:14:58;;;;;;;;;33.33;33.00;;;;;21.88;60.30;100852.34;110744;1257;18290;-54
2022/08/05 02:17:25;;;;;;;;;32.33;31.00;;;;;21.71;60.75;100850.39;110788;1257;18729;-55
2022/08/05 02:19:53;;;;;;;;;31.67;30.67;;;;;21.74;60.77;100843.45;110790;1258;20438;-55
2022/08/05 02:22:20;;;;;;;;;33.00;32.33;;;;;21.65;61.07;100839.66;110771;1257;22079;-52
2022/08/05 02:24:47;;;;;;;;;31.67;30.67;;;;;21.64;60.97;100844.17;110825;1258;21075;-54
2022/08/05 02:27:15;;;;;;;;;35.50;32.50;;;;;21.71;61.01;100833.87;110785;1257;18864;-56
2022/08/05 02:29:42;;;;;;;;;35.67;32.67;;;;;21.61;61.08;100836.41;110765;1257;18213;-53
2022/08/05 02:32:09;;;;;;;;;38.33;35.33;;;;;21.57;61.16;100833.79;110773;1257;18742;-53
2022/08/05 02:34:37;;;;;;;;;36.00;34.50;;;;;21.56;61.09;100832.49;110702;1257;18722;-54
2022/08/05 02:37:05;;;;;;;;;38.50;35.00;;;;;21.46;61.52;100833.16;110758;1257;18658;-56
2022/08/05 02:39:33;;;;;;;;;35.00;32.00;;;;;21.38;61.74;100832.80;110755;1258;18704;-57
2022/08/05 02:42:00;;;;;;;;;36.00;35.00;;;;;21.39;62.04;100828.63;110752;1257;18652;-50
2022/08/05 02:44:28;;;;;;;;;32.50;32.50;;;;;21.21;62.44;100831.08;110760;1258;20888;-55
2022/08/05 02:46:55;;;;;;;;;38.00;34.67;;;;;21.16;62.49;100824.19;110832;1257;18895;-51
2022/08/05 02:49:23;;;;;;;;;35.50;33.50;;;;;21.26;62.28;100824.87;110797;1257;20903;-54
2022/08/05 02:51:50;;;;;;;;;35.33;33.00;;;;;21.20;62.36;100823.25;110815;1257;19149;-56
2022/08/05 02:54:17;;;;;;;;;37.00;36.33;;;;;21.15;62.43;100823.38;110737;1257;18682;-54
2022/08/05 02:56:45;;;;;;;;;33.50;31.00;;;;;21.12;62.94;100818.73;110767;1258;23426;-53
2022/08/05 02:59:12;;;;;;;;;37.67;33.67;;;;;21.21;62.50;100822.90;110816;1258;18254;-54
2022/08/05 03:01:40;;;;;;;;;34.33;31.67;;;;;21.19;62.60;100819.54;110773;1257;18707;-54
2022/08/05 03:04:07;;;;;;;;;36.33;32.00;;;;;21.12;62.74;100819.95;110802;1257;18715;-55
2022/08/05 03:06:35;;;;;;;;;34.67;33.33;;;;;21.06;62.67;100816.57;110841;1257;21627;-53
2022/08/05 03:09:02;;;;;;;;;34.50;34.50;;;;;21.06;62.74;100815.73;110794;1257;18838;-53
2022/08/05 03:11:29;;;;;;;;;35.67;34.67;;;;;21.12;62.72;100813.83;110789;1257;20107;-53
2022/08/05 03:13:56;;;;;;;;;33.00;33.00;;;;;21.12;62.65;100815.20;110770;1256;18823;-54
2022/08/05 03:16:24;;;;;;;;;34.00;33.33;;;;;21.04;62.82;100815.05;110774;1256;18682;-54
2022/08/05 03:18:51;;;;;;;;;36.33;34.33;;;;;21.04;62.96;100814.33;110815;1257;18863;-54
2022/08/05 03:21:18;;;;;;;;;34.33;31.33;;;;;20.94;63.06;100814.98;110782;1256;18226;-53
2022/08/05 03:23:46;;;;;;;;;35.00;33.50;;;;;20.89;63.49;100818.07;110758;1257;19025;-55
2022/08/05 03:26:13;;;;;;;;;35.67;32.33;;;;;20.92;63.53;100816.31;110758;1257;18738;-54
2022/08/05 03:28:41;;;;;;;;;34.33;30.00;;;;;21.09;63.25;100815.37;110764;1257;19683;-56
2022/08/05 03:31:08;;;;;;;;;35.67;33.00;;;;;21.13;62.61;100815.10;110791;1257;18755;-54
2022/08/05 03:33:35;;;;;;;;;32.33;32.00;;;;;20.90;63.22;100816.13;110819;1257;18686;-50
2022/08/05 03:36:03;;;;;;;;;32.67;30.33;;;;;21.01;63.52;100817.65;110771;1256;18298;-54
2022/08/05 03:38:30;;;;;;;;;35.50;32.00;;;;;21.12;62.99;100819.95;110777;1257;19775;-54
2022/08/05 03:40:57;;;;;;;;;33.67;32.00;;;;;21.05;63.10;100818.23;110772;1256;18675;-53
2022/08/05 03:43:25;;;;;;;;;32.00;31.67;;;;;20.89;63.68;100816.40;110750;1256;22112;-53
2022/08/05 03:45:52;;;;;;;;;36.67;35.00;;;;;20.72;64.41;100817.98;110851;1257;19279;-53
2022/08/05 03:48:20;;;;;;;;;33.00;29.00;;;;;20.74;64.57;100824.11;110789;1258;22657;-54
2022/08/05 03:50:47;;;;;;;;;33.50;32.00;;;;;20.81;64.99;100825.59;110790;1257;18220;-54
2022/08/05 03:53:15;;;;;;;;;36.00;33.00;;;;;20.80;64.72;100828.25;110794;1256;18805;-53
2022/08/05 03:55:42;;;;;;;;;36.00;32.67;;;;;20.76;65.28;100829.39;110781;1256;18921;-53
2022/08/05 03:58:10;;;;;;;;;31.00;30.00;;;;;20.71;65.33;100827.56;110817;1256;19229;-54
2022/08/05 04:00:37;;;;;;;;;36.33;32.00;;;;;20.67;65.53;100826.79;110805;1257;19269;-54
2022/08/05 04:03:05;;;;;;;;;37.33;34.00;;;;;20.74;65.39;100827.62;110755;1258;19147;-54
2022/08/05 04:05:32;;;;;;;;;33.00;32.00;;;;;20.82;65.13;100824.33;110778;1257;18273;-53
2022/08/05 04:08:00;;;;;;;;;32.67;32.00;;;;;20.87;65.19;100826.86;110707;1258;18666;-54
2022/08/05 04:10:27;;;;;;;;;33.00;31.00;;;;;20.86;65.18;100823.63;110728;1257;18665;-54
2022/08/05 04:12:55;;;;;;;;;34.67;32.67;;;;;20.73;65.31;100823.70;110762;1257;19305;-53
2022/08/05 04:15:22;;;;;;;;;33.00;31.67;;;;;20.80;65.19;100822.80;110797;1257;18775;-55
2022/08/05 04:17:50;;;;;;;;;33.50;31.50;;;;;20.83;65.22;100822.08;110802;1257;18865;-52
2022/08/05 04:20:18;;;;;;;;;37.33;33.33;;;;;20.83;65.03;100817.55;110754;1257;18504;-55
2022/08/05 04:22:45;;;;;;;;;36.00;34.00;;;;;20.85;65.18;100818.80;110749;1258;20167;-55
2022/08/05 04:25:12;;;;;;;;;37.00;32.67;;;;;20.94;64.49;100821.15;108961;1257;2368672;-54
2022/08/05 04:27:40;;;;;;;;;33.33;29.67;;;;;20.82;64.87;100818.36;110757;1257;19436;-52
2022/08/05 04:30:07;;;;;;;;;37.67;33.67;;;;;20.93;64.51;100822.04;110763;1255;18723;-56
2022/08/05 04:32:34;;;;;;;;;32.00;29.33;;;;;20.84;64.72;100821.36;110765;1256;18744;-55
2022/08/05 04:35:02;;;;;;;;;35.33;30.33;;;;;20.95;64.54;100823.22;110764;1256;18309;-57
2022/08/05 04:37:29;;;;;;;;;36.67;33.00;;;;;21.15;63.92;100819.83;110752;1256;18676;-54
2022/08/05 04:39:57;;;;;;;;;34.33;32.00;;;;;21.04;64.12;100814.54;110853;1256;18762;-53
2022/08/05 04:42:24;;;;;;;;;35.67;33.00;;;;;21.05;64.15;100814.64;110796;1256;18270;-58
2022/08/05 04:44:51;;;;;;;;;35.50;34.00;;;;;21.25;63.66;100814.47;110771;1257;21446;-56
2022/08/05 04:47:19;;;;;;;;;35.67;32.67;;;;;21.24;63.54;100811.10;110687;1258;18770;-57
2022/08/05 04:49:46;;;;;;;;;41.00;37.67;;;;;21.28;63.53;100807.38;110754;1257;18520;-52
2022/08/05 04:52:13;;;;;;;;;34.67;32.67;;;;;21.33;63.45;100808.66;110753;1257;18725;-56
2022/08/05 04:54:41;;;;;;;;;32.00;30.67;;;;;21.34;63.26;100807.59;110819;1257;18688;-55
2022/08/05 04:57:08;;;;;;;;;35.50;33.00;;;;;21.39;63.08;100805.05;110755;1257;20526;-54
2022/08/05 04:59:37;;;;;;;;;36.33;34.00;;;;;21.47;62.72;100805.80;110657;1257;19589;-53
2022/08/05 05:02:04;;;;;;;;;33.67;30.00;;;;;21.49;62.81;100802.95;110727;1257;18696;-54
2022/08/05 05:04:31;;;;;;;;;30.33;28.67;;;;;21.51;62.80;100798.73;110767;1257;19845;-56
2022/08/05 05:06:59;;;;;;;;;33.33;30.00;;;;;21.77;62.00;100797.94;110808;1258;18765;-56
2022/08/05 05:09:26;;;;;;;;;35.00;32.50;;;;;21.80;61.95;100798.20;110726;1258;20222;-54
2022/08/05 05:11:53;;;;;;;;;33.33;31.00;;;;;21.89;61.71;100801.14;110772;1256;18259;-57
2022/08/05 05:14:21;;;;;;;;;33.67;31.00;;;;;22.01;61.51;100803.68;110720;1257;18849;-56
2022/08/05 05:16:48;;;;;;;;;30.67;29.67;;;;;21.95;61.36;100801.17;110769;1258;19081;-56
2022/08/05 05:19:15;;;;;;;;;31.33;29.33;;;;;22.11;60.94;100810.00;110764;1256;18263;-55
2022/08/05 05:21:43;;;;;;;;;32.67;30.67;;;;;22.34;60.41;100803.89;110783;1256;18686;-58
2022/08/05 05:24:10;;;;;;;;;30.00;30.00;;;;;22.55;59.93;100808.11;110764;1255;18761;-57
2022/08/05 05:26:38;;;;;;;;;27.67;26.00;;;;;22.62;59.64;100806.42;110785;1256;18307;-54
2022/08/05 05:29:05;;;;;;;;;32.33;31.00;;;;;22.86;59.13;100803.58;110728;1257;18672;-54
2022/08/05 05:31:33;;;;;;;;;31.33;29.67;;;;;23.00;58.74;100804.83;110599;1259;19435;-53
2022/08/05 05:34:00;;;;;;;;;31.00;29.00;;;;;22.87;58.86;100803.46;110794;1257;18226;-54
2022/08/05 05:36:28;;;;;;;;;31.00;29.00;;;;;23.08;58.57;100804.78;110739;1258;21871;-57
2022/08/05 05:38:55;;;;;;;;;26.67;25.00;;;;;23.08;58.28;100806.15;110744;1258;18688;-54
2022/08/05 05:41:23;;;;;;;;;29.00;27.50;;;;;23.13;58.27;100806.77;110703;1257;21870;-54
2022/08/05 05:43:50;;;;;;;;;34.00;30.50;;;;;23.19;58.21;100802.04;110686;1257;18749;-56
2022/08/05 05:46:18;;;;;;;;;33.00;30.67;;;;;23.25;58.22;100797.45;110747;1258;18789;-54
2022/08/05 05:48:45;;;;;;;;;30.67;28.00;;;;;23.46;58.03;100797.95;110756;1256;18589;-56
2022/08/05 05:51:13;;;;;;;;;30.67;28.67;;;;;23.59;57.65;100797.20;110808;1256;18662;-55
2022/08/05 05:53:40;;;;;;;;;29.00;28.00;;;;;23.61;57.30;100800.58;110775;1256;18771;-55
2022/08/05 05:56:08;;;;;;;;;30.00;28.33;;;;;23.57;57.36;100804.47;110804;1256;18411;-54
2022/08/05 05:58:35;;;;;;;;;27.00;25.33;;;;;23.46;57.35;100806.83;110808;1256;18810;-56
2022/08/05 06:01:03;;;;;;;;;27.67;26.00;;;;;23.48;57.48;100804.98;110839;1256;18926;-58
2022/08/05 06:03:30;;;;;;;;;26.00;26.00;;;;;23.71;57.10;100801.83;110771;1255;18329;-56
2022/08/05 06:05:57;;;;;;;;;29.67;27.67;;;;;23.97;56.66;100800.56;110756;1256;19135;-55
2022/08/05 06:08:25;;;;;;;;;32.00;30.67;;;;;24.11;56.28;100804.77;110674;1257;20931;-55
2022/08/05 06:10:53;;;;;;;;;26.33;24.00;;;;;24.27;56.28;100799.19;110720;1257;18217;-55
2022/08/05 06:13:20;;;;;;;;;24.33;23.67;;;;;24.42;56.13;100803.45;110757;1257;21606;-53
2022/08/05 06:15:48;;;;;;;;;24.00;23.00;;;;;24.57;56.06;100799.13;110672;1257;20332;-57
2022/08/05 06:18:15;;;;;;;;;27.00;24.00;;;;;24.68;55.66;100800.08;110762;1257;18462;-55
2022/08/05 06:20:43;;;;;;;;;24.00;24.00;;;;;24.66;55.08;100803.83;110729;1256;19422;-55
2022/08/05 06:23:10;;;;;;;;;27.33;23.67;;;;;24.63;55.07;100800.73;110723;1257;18800;-56
2022/08/05 06:25:37;;;;;;;;;24.00;23.50;;;;;24.73;55.15;100801.77;110661;1258;20167;-57
2022/08/05 06:28:05;;;;;;;;;22.33;22.00;;;;;24.75;55.41;100800.17;110796;1256;18809;-55
2022/08/05 06:30:32;;;;;;;;;22.67;22.00;;;;;24.81;55.10;100801.67;110693;1256;19016;-56
2022/08/05 06:33:00;;;;;;;;;25.00;24.33;;;;;24.81;55.17;100801.13;110794;1256;18396;-55
2022/08/05 06:35:27;;;;;;;;;24.00;23.67;;;;;24.82;55.13;100800.24;110730;1257;18697;-52
2022/08/05 06:37:55;;;;;;;;;24.33;23.00;;;;;24.82;55.01;100797.67;110718;1258;19120;-57
2022/08/05 06:40:22;;;;;;;;;22.33;21.67;;;;;24.82;55.19;100798.73;110785;1256;18267;-55
2022/08/05 06:42:50;;;;;;;;;24.67;23.67;;;;;24.84;54.98;100799.42;110726;1256;21944;-53
2022/08/05 06:45:17;;;;;;;;;23.67;23.00;;;;;24.85;55.01;100791.66;110808;1256;18818;-55
2022/08/05 06:47:45;;;;;;;;;23.00;23.00;;;;;24.86;55.08;100789.69;110783;1256;18263;-55
2022/08/05 06:50:12;;;;;;;;;23.00;22.00;;;;;24.87;54.87;100788.64;110786;1256;19309;-56
2022/08/05 06:52:39;;;;;;;;;22.67;22.33;;;;;24.89;54.99;100786.91;110796;1257;18781;-53
2022/08/05 06:55:07;;;;;;;;;24.00;19.33;;;;;24.90;54.86;100779.66;110868;1256;18961;-55
2022/08/05 06:57:34;;;;;;;;;22.33;20.67;;;;;24.90;54.89;100779.96;110804;1256;18733;-54
2022/08/05 07:00:02;;;;;;;;;25.00;22.00;;;;;24.90;54.88;100776.84;110810;1256;21030;-54
2022/08/05 07:02:30;;;;;;;;;19.67;19.00;;;;;24.92;54.76;100776.64;110856;1256;18203;-54
2022/08/05 07:04:57;;;;;;;;;20.00;20.00;;;;;24.94;54.78;100778.41;110738;1258;19067;-56
2022/08/05 07:07:24;;;;;;;;;22.00;20.00;;;;;24.95;54.79;100775.34;110744;1256;22067;-57
2022/08/05 07:09:52;;;;;;;;;22.50;20.00;;;;;24.96;54.70;100771.72;110766;1256;18314;-54
2022/08/05 07:17:46;;;;;;;;;23.00;21.67;;;;;25.02;54.48;100769.11;110796;1258;19256;-55
2022/08/05 07:20:13;;;;;;;;;22.00;21.00;;;;;25.03;54.58;100768.04;110689;1256;18699;-56
2022/08/05 07:22:41;;;;;;;;;20.67;20.67;;;;;25.04;54.46;100768.46;110733;1258;22010;-55
2022/08/05 07:25:08;;;;;;;;;21.00;19.67;;;;;25.04;54.52;100764.77;110840;1256;18829;-54
2022/08/05 07:27:35;;;;;;;;;20.00;19.00;;;;;25.06;54.45;100764.62;110807;1255;18719;-54
2022/08/05 07:30:02;;;;;;;;;18.50;18.50;;;;;25.06;54.48;100761.25;110759;1257;18729;-54
2022/08/05 07:32:30;;;;;;;;;22.33;19.33;;;;;25.08;54.37;100759.17;110781;1256;19741;-53
2022/08/05 07:34:58;;;;;;;;;22.67;20.00;;;;;25.09;54.44;100757.39;110634;1258;18631;-56
2022/08/05 07:37:25;;;;;;;;;19.00;18.33;;;;;25.10;54.47;100758.86;110768;1257;18688;-56
2022/08/05 07:39:53;;;;;;;;;22.50;20.50;;;;;25.12;54.64;100762.86;110782;1258;22130;-54
2022/08/05 07:42:20;;;;;;;;;20.00;19.00;;;;;25.13;54.37;100763.34;110623;1258;19244;-54
2022/08/05 07:44:48;;;;;;;;;22.00;22.00;;;;;25.13;54.42;100760.85;110789;1257;20953;-54
2022/08/05 07:47:15;;;;;;;;;19.67;18.33;;;;;25.15;54.24;100763.40;110823;1256;18541;-53
2022/08/05 07:49:43;;;;;;;;;18.67;18.00;;;;;25.15;54.36;100762.43;110809;1257;19547;-57
2022/08/05 07:52:10;;;;;;;;;20.00;18.50;;;;;25.16;54.19;100762.98;110840;1256;19081;-54
2022/08/05 07:54:37;;;;;;;;;20.50;18.50;;;;;25.16;54.29;100753.65;110795;1256;18264;-56
2022/08/05 07:57:05;;;;;;;;;20.50;19.00;;;;;25.17;54.27;100753.73;110792;1256;19395;-54
2022/08/05 07:59:32;;;;;;;;;20.00;20.00;;;;;25.17;54.11;100750.11;110750;1256;19596;-55
2022/08/05 08:02:01;;;;;;;;;23.00;19.00;;;;;25.18;54.17;100754.70;110809;1257;18219;-54
2022/08/05 08:04:29;;;;;;;;;18.67;18.67;;;;;25.18;54.24;100753.44;110744;1256;18833;-56
2022/08/05 08:06:59;;;;;;;;;19.00;19.00;;;;;25.20;54.09;100754.77;110809;1256;18726;-53
2022/08/05 08:09:27;;;;;;;;;19.00;19.00;;;;;25.21;54.22;100746.79;110734;1256;21937;-55
2022/08/05 08:11:54;;;;;;;;;19.00;19.00;;;;;25.22;54.14;100746.88;110838;1256;18792;-55
2022/08/05 08:14:21;;;;;;;;;20.00;19.00;;;;;25.23;54.18;100743.71;110802;1256;19377;-52
2022/08/05 08:16:49;;;;;;;;;18.00;18.00;;;;;25.25;53.97;100742.98;110786;1258;21964;-56
2022/08/05 08:19:16;;;;;;;;;19.00;18.00;;;;;25.26;54.02;100744.14;110789;1256;18715;-57
2022/08/05 08:21:44;;;;;;;;;15.00;15.00;;;;;25.26;54.07;100742.65;110829;1256;18760;-57
2022/08/05 08:24:11;;;;;;;;;18.00;18.00;;;;;25.26;54.09;100744.81;110691;1255;19602;-53
2022/08/05 08:26:39;;;;;;;;;17.67;17.00;;;;;25.27;54.00;100742.55;110766;1256;18740;-56
2022/08/05 08:29:06;;;;;;;;;18.00;18.00;;;;;25.28;53.95;100749.25;110830;1256;18767;-54
2022/08/05 08:31:34;;;;;;;;;19.00;18.33;;;;;25.29;53.90;100747.95;110786;1256;18272;-54
2022/08/05 08:34:01;;;;;;;;;17.67;17.67;;;;;25.29;53.96;100751.31;110798;1256;18672;-56
2022/08/05 08:36:28;;;;;;;;;17.00;17.00;;;;;25.29;53.97;100750.73;110719;1256;18840;-55
2022/08/05 08:38:56;;;;;;;;;17.50;17.00;;;;;25.30;53.78;100753.55;110628;1256;18274;-53
2022/08/05 08:41:23;;;;;;;;;19.67;18.33;;;;;25.32;53.83;100753.19;110678;1256;18714;-56
2022/08/05 08:43:51;;;;;;;;;19.00;19.00;;;;;25.33;53.83;100755.86;110799;1257;18705;-53
2022/08/05 08:46:18;;;;;;;;;19.00;19.00;;;;;25.33;53.57;100747.16;110812;1256;18534;-52
2022/08/05 08:48:45;;;;;;;;;19.00;18.00;;;;;25.35;53.68;100750.45;110719;1256;18639;-57
2022/08/05 08:51:13;;;;;;;;;16.50;16.50;;;;;25.35;53.67;100749.31;110726;1256;19385;-55
2022/08/05 08:53:40;;;;;;;;;19.00;18.00;;;;;25.35;53.67;100748.42;110766;1256;18262;-55
2022/08/05 08:56:09;;;;;;;;;14.00;14.00;;;;;25.36;53.59;100742.85;110860;1256;19358;-54
2022/08/05 08:58:36;;;;;;;;;19.00;19.00;;;;;25.36;53.53;100740.02;110796;1256;19089;-54
2022/08/05 09:01:03;;;;;;;;;18.00;18.00;;;;;25.37;53.41;100735.34;110819;1256;19608;-54
2022/08/05 09:03:31;;;;;;;;;14.67;14.67;;;;;25.37;53.55;100732.59;110759;1255;18677;-54
2022/08/05 09:05:58;;;;;;;;;18.00;17.33;;;;;25.37;53.54;100731.88;110730;1258;21280;-57
2022/08/05 09:08:26;;;;;;;;;18.33;15.00;;;;;25.37;53.55;100730.02;110755;1255;22155;-53
2022/08/05 09:10:53;;;;;;;;;17.00;15.67;;;;;25.37;53.45;100733.43;110681;1258;21155;-57
2022/08/05 09:13:20;;;;;;;;;18.00;15.00;;;;;25.38;53.52;100724.07;110551;1256;18732;-54
2022/08/05 09:15:48;;;;;;;;;18.00;16.00;;;;;25.39;53.28;100722.15;110824;1256;21151;-53
2022/08/05 09:18:15;;;;;;;;;18.33;18.00;;;;;25.40;53.35;100724.47;110784;1255;19521;-55
2022/08/05 09:20:43;;;;;;;;;15.67;15.67;;;;;25.41;53.32;100723.66;110766;1256;18800;-54
2022/08/05 09:23:10;;;;;;;;;18.00;16.00;;;;;25.40;53.33;100725.77;110824;1256;18955;-55
2022/08/05 09:25:38;;;;;;;;;18.33;17.33;;;;;25.41;53.24;100721.47;110793;1256;19488;-54
2022/08/05 09:28:06;;;;;;;;;14.00;13.00;;;;;25.41;53.31;100719.95;110730;1256;18760;-55
2022/08/05 09:30:33;;;;;;;;;15.33;15.33;;;;;25.43;53.16;100712.30;110688;1256;18832;-53
2022/08/05 09:33:00;;;;;;;;;20.00;18.67;;;;;25.46;53.38;100710.05;110739;1256;19539;-58
2022/08/05 09:35:28;;;;;;;;;18.67;18.00;;;;;25.54;53.28;100705.27;110628;1256;18834;-54
2022/08/05 09:37:57;;;;;;;;;16.67;15.00;;;;;25.92;51.58;100695.94;110462;1258;19617;-54
2022/08/05 09:40:25;;;;;;;;;18.67;18.33;;;;;25.94;51.99;100698.27;110662;1256;19454;-55
2022/08/05 09:42:52;;;;;;;;;16.67;16.33;;;;;25.88;52.67;100696.66;110816;1256;18829;-56
2022/08/05 09:45:20;;;;;;;;;18.00;16.00;;;;;25.85;53.22;100699.06;110771;1255;18781;-53
2022/08/05 09:47:47;;;;;;;;;18.33;15.67;;;;;25.83;53.37;100699.06;110745;1256;19690;-56
2022/08/05 09:50:14;;;;;;;;;16.00;16.00;;;;;25.81;53.45;100695.95;110737;1256;22914;-53
2022/08/05 09:52:42;;;;;;;;;16.00;16.00;;;;;25.76;53.92;100695.05;110739;1256;18757;-54
2022/08/05 09:55:09;;;;;;;;;17.33;16.00;;;;;25.76;53.83;100692.02;110815;1256;22218;-55
2022/08/05 09:57:36;;;;;;;;;14.50;14.50;;;;;25.74;53.71;100691.63;110740;1256;18757;-51
2022/08/05 10:00:04;;;;;;;;;15.00;15.00;;;;;25.72;53.59;100691.42;110786;1256;18865;-54
2022/08/05 10:02:32;;;;;;;;;19.50;19.00;;;;;25.67;53.73;100682.56;110769;1256;22111;-54
2022/08/05 10:04:59;;;;;;;;;16.67;16.00;;;;;25.65;53.80;100683.48;110675;1257;18733;-53
2022/08/05 10:07:26;;;;;;;;;17.00;15.67;;;;;25.64;53.92;100681.50;110728;1256;18803;-53
2022/08/05 10:09:54;;;;;;;;;17.33;17.33;;;;;25.61;53.88;100679.55;110748;1256;19987;-56
2022/08/05 10:12:21;;;;;;;;;14.33;14.33;;;;;25.61;53.81;100685.64;110725;1256;18969;-60
2022/08/05 10:14:48;;;;;;;;;17.33;16.33;;;;;25.60;53.89;100688.09;110717;1256;18856;-53
2022/08/05 10:17:16;;;;;;;;;16.67;16.67;;;;;25.60;53.87;100687.50;110760;1256;19992;-55
2022/08/05 10:19:43;;;;;;;;;19.00;18.00;;;;;25.61;53.80;100689.02;110772;1256;18957;-54
2022/08/05 10:22:10;;;;;;;;;16.00;16.00;;;;;25.61;53.95;100685.97;110772;1256;22196;-56
2022/08/05 10:24:38;;;;;;;;;18.50;18.00;;;;;25.62;53.92;100678.86;110798;1256;19602;-55
2022/08/05 10:27:06;;;;;;;;;19.00;16.50;;;;;25.63;53.89;100678.60;110768;1256;18697;-54
2022/08/05 10:29:35;;;;;;;;;16.00;15.00;;;;;25.62;53.97;100665.85;110803;1256;18721;-56
2022/08/05 10:32:03;;;;;;;;;16.50;15.00;;;;;25.65;53.96;100667.79;110779;1255;19507;-55
2022/08/05 10:34:30;;;;;;;;;18.00;18.00;;;;;25.68;54.08;100664.96;110683;1256;19176;-55
2022/08/05 10:36:58;;;;;;;;;19.00;16.00;;;;;25.72;53.99;100657.90;110605;1257;19052;-52
2022/08/05 10:39:25;;;;;;;;;16.00;15.00;;;;;25.75;54.00;100656.34;110551;1258;19540;-52
2022/08/05 10:41:53;;;;;;;;;18.00;17.00;;;;;25.75;53.83;100660.17;110574;1258;18935;-54
2022/08/05 10:44:21;;;;;;;;;15.00;15.00;;;;;25.76;54.04;100666.42;110677;1258;19029;-55
2022/08/05 10:46:49;;;;;;;;;16.33;15.00;;;;;25.78;53.91;100661.89;110538;1257;19784;-53
2022/08/05 10:49:16;;;;;;;;;18.00;18.00;;;;;25.79;54.08;100657.89;110594;1258;18918;-54
2022/08/05 10:51:44;;;;;;;;;15.33;15.00;;;;;25.79;53.98;100652.57;110713;1258;22369;-55
2022/08/05 10:54:11;;;;;;;;;15.67;15.00;;;;;25.80;54.21;100647.85;110721;1256;19792;-51
2022/08/05 10:56:39;;;;;;;;;16.00;15.67;;;;;25.81;54.41;100657.80;110726;1255;18713;-56
2022/08/05 10:59:06;;;;;;;;;17.33;16.00;;;;;25.80;54.45;100660.76;110656;1256;18973;-55
2022/08/05 11:01:33;;;;;;;;;15.50;15.00;;;;;25.82;54.65;100652.39;110597;1257;19518;-53
2022/08/05 11:04:02;;;;;;;;;18.67;18.00;;;;;25.82;54.59;100654.08;110702;1256;18763;-55
2022/08/05 11:06:29;;;;;;;;;18.33;16.00;;;;;25.81;54.59;100653.83;110680;1257;21142;-55
2022/08/05 11:08:56;;;;;;;;;15.33;15.00;;;;;25.81;54.77;100641.71;110726;1257;20874;-54